createdAt,value
2019-02-06T00:06:07.026Z,63.20
2019-02-06T00:16:12.822Z,59.20
2019-02-06T00:26:17.575Z,60.03
2019-02-06T00:36:22.247Z,59.40
2019-02-06T00:46:27.224Z,56.37
2019-02-06T00:56:31.828Z,52.13
2019-02-06T01:06:36.483Z,57.37
2019-02-06T01:16:41.189Z,55.23
2019-02-06T01:26:45.969Z,51.47
2019-02-06T01:36:50.777Z,53.13
2019-02-06T01:46:55.483Z,51.43
2019-02-06T01:57:00.139Z,50.07
2019-02-06T02:07:05.087Z,54.57
2019-02-06T02:17:09.735Z,57.80
2019-02-06T02:27:14.407Z,55.93
2019-02-06T02:37:19.185Z,67.33
2019-02-06T02:47:23.897Z,51.67
2019-02-06T02:57:28.589Z,50.33
2019-02-06T03:07:33.451Z,48.83
2019-02-06T03:17:38.110Z,50.23
2019-02-06T03:27:42.897Z,47.37
2019-02-06T03:37:47.563Z,45.37
2019-02-06T03:47:52.226Z,45.60
2019-02-06T03:57:56.943Z,46.20
2019-02-06T04:08:01.662Z,42.17
2019-02-06T04:18:06.316Z,46.40
2019-02-06T04:28:10.959Z,44.87
2019-02-06T04:38:15.827Z,40.43
2019-02-06T04:48:20.468Z,49.27
2019-02-06T04:58:25.150Z,45.80
2019-02-06T05:08:29.816Z,44.80
2019-02-06T05:18:34.520Z,42.00
2019-02-06T05:28:39.233Z,46.90
2019-02-06T05:38:44.035Z,44.90
2019-02-06T05:48:49.563Z,42.40
2019-02-06T05:58:54.237Z,39.90
2019-02-06T06:08:59.012Z,47.03
2019-02-06T06:19:03.696Z,41.23
2019-02-06T06:29:08.376Z,40.97
2019-02-06T06:39:13.047Z,41.53
2019-02-06T06:49:17.618Z,38.67
2019-02-06T06:59:22.573Z,40.07
2019-02-06T07:09:27.387Z,39.47
2019-02-06T07:19:32.287Z,39.90
2019-02-06T07:29:37.511Z,36.43
2019-02-06T07:39:42.265Z,38.67
2019-02-06T07:49:47.168Z,35.77
2019-02-06T07:59:51.981Z,41.33
2019-02-06T08:09:56.810Z,36.87
2019-02-06T08:20:01.631Z,33.43
2019-02-06T08:30:09.706Z,34.10
2019-02-06T08:40:14.407Z,39.20
2019-02-06T08:50:19.412Z,36.87
2019-02-06T09:00:25.614Z,34.83
2019-02-06T09:10:30.471Z,39.37
2019-02-06T09:20:37.901Z,35.50
2019-02-06T09:30:42.778Z,37.87
2019-02-06T09:40:49.442Z,39.27
2019-02-06T09:50:54.215Z,37.03
2019-02-06T10:00:59.014Z,32.40
2019-02-06T10:11:03.698Z,39.53
2019-02-06T10:21:08.302Z,40.43
2019-02-06T10:31:13.099Z,38.47
2019-02-06T10:41:17.829Z,35.30
2019-02-06T10:51:23.512Z,35.13
2019-02-06T11:01:28.990Z,36.23
2019-02-06T11:11:34.519Z,35.30
2019-02-06T11:21:40.848Z,38.47
2019-02-06T11:31:46.244Z,34.20
2019-02-06T11:41:51.736Z,35.93
2019-02-06T11:51:57.844Z,29.10
2019-02-06T12:02:03.393Z,34.83
2019-02-06T12:12:08.966Z,30.27
2019-02-06T12:22:14.362Z,36.80
2019-02-06T12:32:19.828Z,32.83
2019-02-06T12:42:25.452Z,29.90
2019-02-06T12:52:30.766Z,30.87
2019-02-06T13:02:36.126Z,33.07
2019-02-06T13:12:41.804Z,30.07
2019-02-06T13:22:47.196Z,37.10
2019-02-06T13:32:52.555Z,30.33
2019-02-06T13:42:58.111Z,31.87
2019-02-06T13:53:03.969Z,30.13
2019-02-06T14:03:09.740Z,31.10
2019-02-06T14:13:15.071Z,29.27
2019-02-06T14:23:55.212Z,36.30
2019-02-06T14:34:25.097Z,33.67
2019-02-06T14:44:57.644Z,29.87
2019-02-06T14:55:31.240Z,31.00
2019-02-06T15:06:11.825Z,25.23
2019-02-06T15:16:55.433Z,28.80
2019-02-06T15:27:28.159Z,31.47
2019-02-06T15:38:05.149Z,27.03
2019-02-06T15:49:06.442Z,25.90
2019-02-06T15:59:59.051Z,34.30
2019-02-06T16:10:41.039Z,32.97
2019-02-06T16:21:08.784Z,30.30
2019-02-06T16:31:49.073Z,30.70
2019-02-06T16:42:28.171Z,30.30
2019-02-06T16:53:16.162Z,36.43
2019-02-06T17:03:54.462Z,31.33
2019-02-06T17:14:34.913Z,38.17
2019-02-06T17:25:27.352Z,39.43
2019-02-06T17:36:19.924Z,43.47
2019-02-06T17:46:55.351Z,40.40
2019-02-06T17:57:00.706Z,37.87
2019-02-06T18:07:06.754Z,34.87
2019-02-06T18:17:13.288Z,27.93
2019-02-06T18:27:18.832Z,34.77
2019-02-06T18:37:24.278Z,36.30
2019-02-06T18:47:29.818Z,33.07
2019-02-06T18:57:35.326Z,37.33
2019-02-06T19:07:40.728Z,36.27
2019-02-06T19:17:49.198Z,41.20
2019-02-06T19:27:56.334Z,42.13
2019-02-06T19:38:01.682Z,43.03
2019-02-06T19:48:15.606Z,42.80
2019-02-06T19:58:15.189Z,46.97
2019-02-06T20:08:21.003Z,42.43
2019-02-06T20:18:26.384Z,47.40
2019-02-06T20:28:31.809Z,48.40
2019-02-06T20:38:37.531Z,46.00
2019-02-06T20:48:42.950Z,49.03
2019-02-06T20:58:48.297Z,47.43
2019-02-06T21:08:53.743Z,52.20
2019-02-06T21:19:03.164Z,43.87
2019-02-06T21:29:08.759Z,47.47
2019-02-06T21:39:14.577Z,50.00
2019-02-06T21:49:20.265Z,51.57
2019-02-06T21:59:26.209Z,50.77
2019-02-06T22:09:31.582Z,50.20
2019-02-06T22:19:37.287Z,59.37
2019-02-06T22:29:43.323Z,44.73
2019-02-06T22:39:48.725Z,45.33
2019-02-06T22:49:54.296Z,44.20
2019-02-06T22:59:59.682Z,47.17
2019-02-06T23:10:06.531Z,37.67
2019-02-06T23:20:11.975Z,47.50
2019-02-06T23:30:17.574Z,49.97
2019-02-06T23:40:23.165Z,40.30
2019-02-06T23:50:28.473Z,37.10
